createdAt,value
2019-04-11T00:00:50.585Z,2.17
2019-04-11T00:03:19.652Z,1.67
2019-04-11T00:05:48.171Z,1.90
2019-04-11T00:08:17.595Z,2.20
2019-04-11T00:10:47.040Z,1.30
2019-04-11T00:13:21.548Z,0.70
2019-04-11T00:15:46.801Z,1.10
2019-04-11T00:18:16.629Z,0.80
2019-04-11T00:20:46.478Z,0.90
2019-04-11T00:23:16.250Z,0.60
2019-04-11T00:25:44.948Z,0.70
2019-04-11T00:28:13.733Z,0.97
2019-04-11T00:30:42.430Z,0.70
2019-04-11T00:33:11.383Z,0.50
2019-04-11T00:35:40.313Z,0.80
2019-04-11T00:38:09.807Z,0.90
2019-04-11T00:40:39.580Z,0.90
2019-04-11T00:43:09.424Z,0.80
2019-04-11T00:45:38.321Z,0.80
2019-04-11T00:48:06.897Z,0.97
2019-04-11T00:50:35.519Z,0.90
2019-04-11T00:53:05.508Z,0.63
2019-04-11T00:55:35.790Z,1.00
2019-04-11T00:58:05.587Z,1.30
2019-04-11T01:00:36.642Z,0.90
2019-04-11T01:03:06.382Z,1.10
2019-04-11T01:05:37.273Z,1.00
2019-04-11T01:08:07.265Z,1.27
2019-04-11T01:10:36.220Z,1.20
2019-04-11T01:13:05.060Z,0.90
2019-04-11T01:15:34.242Z,0.90
2019-04-11T01:18:03.633Z,1.03
2019-04-11T01:20:32.483Z,1.17
2019-04-11T01:23:01.087Z,0.90
2019-04-11T01:25:30.670Z,0.90
2019-04-11T01:28:00.474Z,1.00
2019-04-11T01:30:37.046Z,0.70
2019-04-11T01:33:06.655Z,1.27
2019-04-11T01:35:35.957Z,0.80
2019-04-11T01:38:04.701Z,1.20
2019-04-11T01:40:33.906Z,0.80
2019-04-11T01:43:03.846Z,0.70
2019-04-11T01:45:33.664Z,0.73
2019-04-11T01:48:22.035Z,0.70
2019-04-11T01:50:51.769Z,0.50
2019-04-11T01:53:21.115Z,0.70
2019-04-11T01:55:50.474Z,0.50
2019-04-11T01:58:19.486Z,0.60
2019-04-11T02:01:06.285Z,0.63
2019-04-11T02:03:55.029Z,0.70
2019-04-11T02:06:25.688Z,0.70
2019-04-11T02:08:55.650Z,0.80
2019-04-11T02:11:25.518Z,0.70
2019-04-11T02:14:05.144Z,0.90
2019-04-11T02:16:25.236Z,1.83
2019-04-11T02:18:54.050Z,1.17
2019-04-11T02:21:22.859Z,1.30
2019-04-11T02:24:20.157Z,1.33
2019-04-11T02:27:08.585Z,2.10
2019-04-11T02:29:38.569Z,2.17
2019-04-11T02:32:07.568Z,1.30
2019-04-11T02:34:37.062Z,1.60
2019-04-11T02:37:07.152Z,1.10
2019-04-11T02:39:36.319Z,1.00
2019-04-11T02:42:06.552Z,1.20
2019-04-11T02:44:50.966Z,1.00
2019-04-11T02:47:13.061Z,1.27
2019-04-11T02:49:39.099Z,1.47
2019-04-11T02:52:09.426Z,1.33
2019-04-11T02:54:41.060Z,1.13
2019-04-11T02:57:11.919Z,1.37
2019-04-11T02:59:44.651Z,1.93
2019-04-11T03:02:15.326Z,1.40
2019-04-11T03:04:43.936Z,1.93
2019-04-11T03:07:16.596Z,2.20
2019-04-11T03:09:48.600Z,1.37
2019-04-11T03:12:16.635Z,1.00
2019-04-11T03:15:02.743Z,0.93
2019-04-11T03:17:21.270Z,1.37
2019-04-11T03:19:59.549Z,1.60
2019-04-11T03:22:18.263Z,1.43
2019-04-11T03:24:48.986Z,2.13
2019-04-11T03:27:19.894Z,1.70
2019-04-11T03:29:49.313Z,1.67
2019-04-11T03:33:00.516Z,1.90
2019-04-11T03:35:37.686Z,1.80
2019-04-11T03:37:45.665Z,1.87
2019-04-11T03:40:11.421Z,1.98
2019-04-11T03:42:38.092Z,1.30
2019-04-11T03:45:15.139Z,1.73
2019-04-11T03:47:38.943Z,1.80
2019-04-11T03:50:01.805Z,1.70
2019-04-11T03:52:26.150Z,1.87
2019-04-11T03:54:56.241Z,1.80
2019-04-11T03:57:27.561Z,2.20
2019-04-11T03:59:58.774Z,2.20
2019-04-11T04:02:28.281Z,2.20
2019-04-11T04:04:57.281Z,2.40
2019-04-11T04:07:27.730Z,2.50
2019-04-11T04:09:58.539Z,2.57
2019-04-11T04:12:29.300Z,2.60
2019-04-11T04:15:37.518Z,2.73
2019-04-11T04:18:10.041Z,3.10
2019-04-11T04:20:59.610Z,3.30
2019-04-11T04:23:33.712Z,3.07
2019-04-11T04:26:05.662Z,3.20
2019-04-11T04:28:35.722Z,4.10
2019-04-11T04:31:06.723Z,3.63
2019-04-11T04:33:37.747Z,4.10
2019-04-11T04:36:10.116Z,4.57
2019-04-11T04:38:38.981Z,4.23
2019-04-11T04:41:23.819Z,4.37
2019-04-11T04:43:43.719Z,5.10
2019-04-11T04:46:29.936Z,5.00
2019-04-11T04:48:44.698Z,4.83
2019-04-11T04:51:14.173Z,4.43
2019-04-11T04:53:45.032Z,3.63
2019-04-11T04:56:16.666Z,4.47
2019-04-11T04:58:46.567Z,4.40
2019-04-11T05:01:15.648Z,4.10
2019-04-11T05:03:46.839Z,4.43
2019-04-11T05:06:18.605Z,4.43
2019-04-11T05:08:49.312Z,3.53
2019-04-11T05:11:18.069Z,4.07
2019-04-11T05:13:50.459Z,4.27
2019-04-11T05:16:18.086Z,5.10
2019-04-11T05:18:48.371Z,4.70
2019-04-11T05:21:17.138Z,5.13
2019-04-11T05:23:46.148Z,4.83
2019-04-11T05:26:15.201Z,5.07
2019-04-11T05:28:44.103Z,4.50
2019-04-11T05:31:12.742Z,4.97
2019-04-11T05:33:41.402Z,5.63
2019-04-11T05:36:10.294Z,4.13
2019-04-11T05:38:38.928Z,3.93
2019-04-11T05:41:12.108Z,4.73
2019-04-11T05:43:39.429Z,3.60
2019-04-11T05:46:23.982Z,3.30
2019-04-11T05:49:09.471Z,3.07
2019-04-11T05:51:42.588Z,2.40
2019-04-11T05:54:10.702Z,2.80
2019-04-11T05:56:40.114Z,2.23
2019-04-11T05:59:18.852Z,2.37
2019-04-11T06:01:53.170Z,2.03
2019-04-11T06:04:32.195Z,2.30
2019-04-11T06:07:10.461Z,1.83
2019-04-11T06:09:41.999Z,2.60
2019-04-11T06:12:37.846Z,2.43
2019-04-11T06:15:11.905Z,2.83
2019-04-11T06:17:42.734Z,3.10
2019-04-11T06:20:40.915Z,3.67
2019-04-11T06:23:21.799Z,2.70
2019-04-11T06:26:00.823Z,3.00
2019-04-11T06:28:31.844Z,2.80
2019-04-11T06:31:40.359Z,2.70
2019-04-11T06:34:09.697Z,2.00
2019-04-11T06:37:07.570Z,2.47
2019-04-11T06:39:48.625Z,2.70
2019-04-11T06:42:30.187Z,2.83
2019-04-11T06:45:13.413Z,2.70
2019-04-11T06:47:51.538Z,2.90
2019-04-11T06:50:37.589Z,2.77
2019-04-11T06:53:07.896Z,2.13
2019-04-11T06:55:53.085Z,2.90
2019-04-11T06:58:27.561Z,2.53
2019-04-11T07:01:01.362Z,2.63
2019-04-11T07:03:35.009Z,2.77
2019-04-11T07:06:09.707Z,2.07
2019-04-11T07:08:48.971Z,1.90
2019-04-11T07:11:19.923Z,1.97
2019-04-11T07:14:18.193Z,2.37
2019-04-11T07:17:13.741Z,1.43
2019-04-11T07:20:07.239Z,1.50
2019-04-11T07:22:55.229Z,1.60
2019-04-11T07:25:43.001Z,2.00
2019-04-11T07:28:37.795Z,2.33
2019-04-11T07:31:32.593Z,2.03
2019-04-11T07:34:35.078Z,1.40
2019-04-11T07:37:21.482Z,1.20
2019-04-11T07:40:17.864Z,1.53
2019-04-11T07:43:13.927Z,1.70
2019-04-11T07:46:12.610Z,2.00
2019-04-11T07:48:42.659Z,1.83
2019-04-11T07:51:34.309Z,1.93
2019-04-11T07:54:06.509Z,1.27
2019-04-11T07:57:04.919Z,1.20
2019-04-11T07:59:46.819Z,1.10
2019-04-11T08:02:47.813Z,1.10
2019-04-11T08:05:36.650Z,1.10
2019-04-11T08:08:32.296Z,1.00
2019-04-11T08:11:13.972Z,1.70
2019-04-11T08:14:06.234Z,1.10
2019-04-11T08:16:57.783Z,1.07
2019-04-11T08:19:46.945Z,1.40
2019-04-11T08:22:48.000Z,1.50
2019-04-11T08:25:39.875Z,0.90
2019-04-11T08:28:12.699Z,1.10
2019-04-11T08:30:49.330Z,1.13
2019-04-11T08:33:18.427Z,1.17
2019-04-11T08:36:09.792Z,1.23
2019-04-11T08:38:38.758Z,0.93
2019-04-11T08:41:27.340Z,0.90
2019-04-11T08:43:56.396Z,0.95
2019-04-11T08:46:37.466Z,0.87
2019-04-11T08:49:10.087Z,0.80
2019-04-11T08:51:39.299Z,0.90
2019-04-11T08:54:45.919Z,0.90
2019-04-11T08:57:28.014Z,0.90
2019-04-11T09:00:16.407Z,1.23
2019-04-11T09:02:51.780Z,0.70
2019-04-11T09:05:33.216Z,1.10
2019-04-11T09:08:20.866Z,1.03
2019-04-11T09:11:18.122Z,1.03
2019-04-11T09:14:22.217Z,1.40
2019-04-11T09:17:16.938Z,0.80
2019-04-11T09:20:17.576Z,0.57
2019-04-11T09:23:06.532Z,0.83
2019-04-11T09:25:57.714Z,1.10
2019-04-11T09:28:44.466Z,0.60
2019-04-11T09:31:41.711Z,0.50
2019-04-11T09:34:33.442Z,0.67
2019-04-11T09:37:21.948Z,0.70
2019-04-11T09:40:11.917Z,0.70
2019-04-11T09:43:01.763Z,0.80
2019-04-11T09:45:54.174Z,1.00
2019-04-11T09:48:31.797Z,0.40
2019-04-11T09:51:18.397Z,0.83
2019-04-11T09:53:52.890Z,3.33
2019-04-11T09:56:42.961Z,3.50
2019-04-11T09:59:17.875Z,2.93
2019-04-11T10:02:10.095Z,3.27
2019-04-11T10:04:41.578Z,3.00
2019-04-11T10:07:28.439Z,2.10
2019-04-11T10:10:17.312Z,1.90
2019-04-11T10:13:04.623Z,1.80
2019-04-11T10:15:54.174Z,2.10
2019-04-11T10:18:49.492Z,2.13
2019-04-11T10:21:19.385Z,2.80
2019-04-11T10:23:56.797Z,2.30
2019-04-11T10:26:28.086Z,2.97
2019-04-11T10:29:17.149Z,2.87
2019-04-11T10:31:47.557Z,2.90
2019-04-11T10:34:38.144Z,2.50
2019-04-11T10:37:11.665Z,2.60
2019-04-11T10:40:00.402Z,3.07
2019-04-11T10:42:30.681Z,2.50
2019-04-11T10:45:24.917Z,2.30
2019-04-11T10:47:57.706Z,2.40
2019-04-11T10:50:52.767Z,2.63
2019-04-11T10:53:23.439Z,2.20
2019-04-11T10:56:06.866Z,2.77
2019-04-11T10:58:44.735Z,2.83
2019-04-11T11:01:38.635Z,2.83
2019-04-11T11:04:27.631Z,2.67
2019-04-11T11:07:00.159Z,2.70
2019-04-11T11:09:39.952Z,2.50
2019-04-11T11:12:29.514Z,2.73
2019-04-11T11:15:19.980Z,2.17
2019-04-11T11:20:53.089Z,2.30
2019-04-11T11:23:35.612Z,2.33
2019-04-11T11:26:25.643Z,2.80
2019-04-11T11:29:15.796Z,2.80
2019-04-11T11:31:49.848Z,3.93
2019-04-11T11:34:25.737Z,3.70
2019-04-11T11:37:14.024Z,3.57
2019-04-11T11:40:05.698Z,3.80
2019-04-11T11:42:50.999Z,3.20
2019-04-11T11:45:29.812Z,3.10
2019-04-11T11:48:22.282Z,3.80
2019-04-11T11:50:51.497Z,2.93
2019-04-11T11:53:55.326Z,3.30
2019-04-11T11:56:24.533Z,2.30
2019-04-11T11:59:13.288Z,2.47
2019-04-11T12:01:50.951Z,2.47
2019-04-11T12:04:42.209Z,2.10
2019-04-11T12:07:12.639Z,0.67
2019-04-11T12:10:11.165Z,1.20
2019-04-11T12:13:13.310Z,1.30
2019-04-11T12:16:21.874Z,0.80
2019-04-11T12:19:16.212Z,1.20
2019-04-11T12:21:46.426Z,1.10
2019-04-11T12:24:34.556Z,1.37
2019-04-11T12:27:32.910Z,1.33
2019-04-11T12:30:23.492Z,0.93
2019-04-11T12:33:12.979Z,0.90
2019-04-11T12:36:01.360Z,0.80
2019-04-11T12:38:49.642Z,1.20
2019-04-11T12:41:25.449Z,0.90
2019-04-11T12:44:26.751Z,0.60
2019-04-11T12:47:08.367Z,1.20
2019-04-11T12:49:52.888Z,0.77
2019-04-11T12:52:37.616Z,0.60
2019-04-11T12:55:07.808Z,0.50
2019-04-11T12:57:54.279Z,0.60
2019-04-11T13:00:35.258Z,0.80
2019-04-11T13:03:23.905Z,0.83
2019-04-11T13:05:56.108Z,0.75
2019-04-11T13:08:43.100Z,0.80
2019-04-11T13:11:12.521Z,0.80
2019-04-11T13:13:58.379Z,0.82
2019-04-11T13:16:27.697Z,0.85
2019-04-11T13:19:18.997Z,0.80
2019-04-11T13:21:51.794Z,1.50
2019-04-11T13:24:45.861Z,0.95
2019-04-11T13:27:23.284Z,0.93
2019-04-11T13:30:17.957Z,1.00
2019-04-11T13:32:48.907Z,1.32
2019-04-11T13:35:22.720Z,1.10
2019-04-11T13:38:06.868Z,1.07
2019-04-11T13:40:55.084Z,1.40
2019-04-11T13:43:30.702Z,1.20
2019-04-11T13:46:27.787Z,0.93
2019-04-11T13:49:31.186Z,1.07
2019-04-11T13:52:28.442Z,1.05
2019-04-11T13:55:29.386Z,1.37
2019-04-11T13:58:17.734Z,1.00
2019-04-11T14:00:57.140Z,0.98
2019-04-11T14:03:48.288Z,0.95
2019-04-11T14:06:40.540Z,1.30
2019-04-11T14:09:38.802Z,1.27
2019-04-11T14:12:13.452Z,0.90
2019-04-11T14:14:48.792Z,0.98
2019-04-11T14:17:21.929Z,2.92
2019-04-11T14:20:13.228Z,2.52
2019-04-11T14:23:13.678Z,1.42
2019-04-11T14:26:20.890Z,1.60
2019-04-11T14:29:21.217Z,1.07
2019-04-11T14:31:56.378Z,1.07
2019-04-11T14:34:43.176Z,0.87
2019-04-11T14:37:43.493Z,1.17
2019-04-11T14:40:41.665Z,1.20
2019-04-11T14:43:30.257Z,1.00
2019-04-11T14:46:18.671Z,1.00
2019-04-11T14:49:10.201Z,0.73
2019-04-11T14:51:58.388Z,0.97
2019-04-11T14:54:39.719Z,0.93
2019-04-11T14:57:16.452Z,0.93
2019-04-11T14:59:53.849Z,2.17
2019-04-11T15:02:53.392Z,1.20
2019-04-11T15:05:44.903Z,1.00
2019-04-11T15:08:17.737Z,1.37
2019-04-11T15:11:06.649Z,1.40
2019-04-11T15:13:35.176Z,1.23
2019-04-11T15:16:35.537Z,0.87
2019-04-11T15:19:04.152Z,0.83
2019-04-11T15:21:51.605Z,0.80
2019-04-11T15:24:20.995Z,0.73
2019-04-11T15:27:09.320Z,2.30
2019-04-11T15:29:39.601Z,1.30
2019-04-11T15:32:28.407Z,1.40
2019-04-11T15:35:00.817Z,1.40
2019-04-11T15:37:49.126Z,1.47
2019-04-11T15:40:33.820Z,1.00
2019-04-11T15:43:42.645Z,1.60
2019-04-11T15:46:28.973Z,1.30
2019-04-11T15:49:31.175Z,1.30
2019-04-11T15:52:06.878Z,1.00
2019-04-11T15:54:56.103Z,1.43
2019-04-11T15:57:32.498Z,1.00
2019-04-11T16:00:30.032Z,1.20
2019-04-11T16:03:07.389Z,1.10
2019-04-11T16:05:54.747Z,1.07
2019-04-11T16:08:52.621Z,0.87
2019-04-11T16:11:41.273Z,1.00
2019-04-11T16:14:24.127Z,1.00
2019-04-11T16:17:16.619Z,1.27
2019-04-11T16:19:53.774Z,1.50
2019-04-11T16:22:59.916Z,1.27
2019-04-11T16:25:29.225Z,1.30
2019-04-11T16:28:16.914Z,1.73
2019-04-11T16:30:47.845Z,1.20
2019-04-11T16:33:39.840Z,1.80
2019-04-11T16:36:28.436Z,1.83
2019-04-11T16:39:08.430Z,2.07
2019-04-11T16:41:58.713Z,1.80
2019-04-11T16:44:47.027Z,1.80
2019-04-11T16:47:41.523Z,2.47
2019-04-11T16:50:11.796Z,1.40
2019-04-11T16:52:40.490Z,1.37
2019-04-11T16:55:10.059Z,2.07
2019-04-11T16:57:43.976Z,1.50
2019-04-11T17:00:12.072Z,1.20
2019-04-11T17:02:40.702Z,1.37
2019-04-11T17:05:09.745Z,2.10
2019-04-11T17:07:56.854Z,1.50
2019-04-11T17:10:43.652Z,1.70
2019-04-11T17:13:13.229Z,1.37
2019-04-11T17:15:41.957Z,1.57
2019-04-11T17:18:10.906Z,1.40
2019-04-11T17:20:39.900Z,1.65
2019-04-11T17:23:08.665Z,2.07
2019-04-11T17:25:37.809Z,1.70
2019-04-11T17:28:09.003Z,1.73
2019-04-11T17:30:37.173Z,2.87
2019-04-11T17:33:05.821Z,3.13
2019-04-11T17:35:34.800Z,2.10
2019-04-11T17:38:06.422Z,4.80
2019-04-11T17:40:35.042Z,4.60
2019-04-11T17:43:05.680Z,3.80
2019-04-11T17:45:34.438Z,2.33
2019-04-11T17:48:03.396Z,3.20
2019-04-11T17:50:35.014Z,1.97
2019-04-11T17:53:03.896Z,1.77
2019-04-11T17:55:33.914Z,2.13
2019-04-11T17:58:02.896Z,2.30
2019-04-11T18:00:35.459Z,2.70
2019-04-11T18:03:04.828Z,3.47
2019-04-11T18:05:33.748Z,2.97
2019-04-11T18:08:02.569Z,3.00
2019-04-11T18:10:31.535Z,2.62
2019-04-11T18:13:00.772Z,3.00
2019-04-11T18:15:31.139Z,2.93
2019-04-11T18:17:59.957Z,2.73
2019-04-11T18:20:29.114Z,4.33
2019-04-11T18:22:58.244Z,5.33
2019-04-11T18:25:27.321Z,6.87
2019-04-11T18:27:56.557Z,5.03
2019-04-11T18:30:27.456Z,4.50
2019-04-11T18:32:56.041Z,3.03
2019-04-11T18:35:25.084Z,10.87
2019-04-11T18:37:53.910Z,12.50
2019-04-11T18:40:23.012Z,7.63
2019-04-11T18:42:52.221Z,3.40
2019-04-11T18:45:20.978Z,5.20
2019-04-11T18:47:50.190Z,5.97
2019-04-11T18:50:22.726Z,4.63
2019-04-11T18:52:50.253Z,6.90
2019-04-11T18:55:19.009Z,8.37
2019-04-11T18:57:47.862Z,6.67
2019-04-11T19:00:19.777Z,7.10
2019-04-11T19:02:48.957Z,6.30
2019-04-11T19:05:28.153Z,5.30
2019-04-11T19:07:49.545Z,5.53
2019-04-11T19:10:19.321Z,6.77
2019-04-11T19:12:48.409Z,5.90
2019-04-11T19:15:17.191Z,6.37
2019-04-11T19:17:47.171Z,6.80
2019-04-11T19:20:18.928Z,6.70
2019-04-11T19:22:47.025Z,7.63
2019-04-11T19:25:15.819Z,7.37
2019-04-11T19:27:44.645Z,7.87
2019-04-11T19:30:13.810Z,7.30
2019-04-11T19:32:42.959Z,8.10
2019-04-11T19:35:11.908Z,8.63
2019-04-11T19:37:42.130Z,8.20
2019-04-11T19:40:16.122Z,8.07
2019-04-11T19:42:42.711Z,8.33
2019-04-11T19:45:11.410Z,9.07
2019-04-11T19:47:40.366Z,9.27
2019-04-11T19:50:09.212Z,9.20
2019-04-11T19:52:45.337Z,9.60
2019-04-11T19:55:17.224Z,9.00
2019-04-11T19:57:45.897Z,10.67
2019-04-11T20:00:15.905Z,10.43
2019-04-11T20:02:44.791Z,9.50
2019-04-11T20:05:13.422Z,9.03
2019-04-11T20:07:42.960Z,9.10
2019-04-11T20:10:12.140Z,9.80
2019-04-11T20:12:40.738Z,10.10
2019-04-11T20:15:09.765Z,9.33
2019-04-11T20:17:44.096Z,10.57
2019-04-11T20:20:09.257Z,10.60
2019-04-11T20:22:39.753Z,11.13
2019-04-11T20:25:08.483Z,11.50
2019-04-11T20:27:37.808Z,11.17
2019-04-11T20:30:07.084Z,11.10
2019-04-11T20:32:36.841Z,11.17
2019-04-11T20:35:09.346Z,10.07
2019-04-11T20:37:39.425Z,10.30
2019-04-11T20:40:07.859Z,10.20
2019-04-11T20:42:36.600Z,8.57
2019-04-11T20:45:06.043Z,9.30
2019-04-11T20:47:35.276Z,9.00
2019-04-11T20:50:07.784Z,8.50
2019-04-11T20:52:35.313Z,8.53
2019-04-11T20:55:08.888Z,9.20
2019-04-11T20:57:36.366Z,9.00
2019-04-11T21:00:06.850Z,9.57
2019-04-11T21:02:37.424Z,10.87
2019-04-11T21:05:06.219Z,9.77
2019-04-11T21:07:35.306Z,8.60
2019-04-11T21:10:05.921Z,7.40
2019-04-11T21:12:36.982Z,7.03
2019-04-11T21:15:06.264Z,7.10
2019-04-11T21:17:35.338Z,6.50
2019-04-11T21:20:04.847Z,7.43
2019-04-11T21:22:33.973Z,7.03
2019-04-11T21:25:02.770Z,6.90
2019-04-11T21:27:31.389Z,7.07
2019-04-11T21:30:00.618Z,6.17
2019-04-11T21:32:31.804Z,4.83
2019-04-11T21:35:02.307Z,5.30
2019-04-11T21:37:30.937Z,4.70
2019-04-11T21:40:00.198Z,4.47
2019-04-11T21:42:29.124Z,4.50
2019-04-11T21:44:57.782Z,5.20
2019-04-11T21:47:26.564Z,4.83
2019-04-11T21:49:55.489Z,6.47
2019-04-11T21:52:24.231Z,5.97
2019-04-11T21:54:53.142Z,6.27
2019-04-11T21:57:22.273Z,6.10
2019-04-11T21:59:52.143Z,7.00
2019-04-11T22:02:24.007Z,7.10
2019-04-11T22:04:52.649Z,7.77
2019-04-11T22:07:21.412Z,6.97
2019-04-11T22:09:50.072Z,7.40
2019-04-11T22:12:19.253Z,6.37
2019-04-11T22:14:48.033Z,6.40
2019-04-11T22:17:17.136Z,6.23
2019-04-11T22:19:46.549Z,6.13
2019-04-11T22:22:16.641Z,6.03
2019-04-11T22:24:45.346Z,5.03
2019-04-11T22:27:14.175Z,4.83
2019-04-11T22:29:44.087Z,5.87
2019-04-11T22:32:12.852Z,4.63
2019-04-11T22:34:46.964Z,5.60
2019-04-11T22:37:16.427Z,3.30
2019-04-11T22:39:45.824Z,3.47
2019-04-11T22:42:14.553Z,3.33
2019-04-11T22:44:43.960Z,3.67
2019-04-11T22:47:13.212Z,3.47
2019-04-11T22:49:42.218Z,3.63
2019-04-11T22:52:12.156Z,2.10
2019-04-11T22:54:41.792Z,2.17
2019-04-11T22:57:12.196Z,2.50
2019-04-11T22:59:44.023Z,2.10
2019-04-11T23:02:21.690Z,3.10
2019-04-11T23:04:54.440Z,2.70
2019-04-11T23:07:22.937Z,1.87
2019-04-11T23:09:53.372Z,2.00
2019-04-11T23:12:21.891Z,2.10
2019-04-11T23:14:50.829Z,2.80
2019-04-11T23:17:19.675Z,5.10
2019-04-11T23:19:48.258Z,6.07
2019-04-11T23:22:16.945Z,7.97
2019-04-11T23:24:45.713Z,7.37
2019-04-11T23:27:14.494Z,7.57
2019-04-11T23:29:44.775Z,6.17
2019-04-11T23:32:14.031Z,5.90
2019-04-11T23:34:42.554Z,5.33
2019-04-11T23:37:11.441Z,5.23
2019-04-11T23:39:40.854Z,4.50
2019-04-11T23:42:10.270Z,3.20
2019-04-11T23:44:39.122Z,2.73
2019-04-11T23:47:07.944Z,2.43
2019-04-11T23:49:37.022Z,2.80
2019-04-11T23:52:05.599Z,2.20
2019-04-11T23:54:34.864Z,2.77
2019-04-11T23:57:03.518Z,2.90
2019-04-11T23:59:32.749Z,3.50
